Lark, North Dakota
Current Conditions -  °F | °C
As of 2:55 PM on Tuesday 21 Oct 2014 (Local Time) from KY19 Reporting Station
Clear Clear  
Wind Chill: 75°   Ceiling: Unl
Heat Index: 75°   Visibility: 10mi
Dew Point: 45°   Wind: 17mph
Humidity: 34%   Direction: 160°SSE
Pressure: 29.7"   Gusts: 28mph
Location:  46.4673°N, 101.102°W
Report Text: KY19 211955Z AUTO 16015G24KT 10SM CLR 24/07 A2970 RMK AO2
Loading
Personal Weather Stations






























Interactive Weather Map
Tropical Storm Tracking
New forecast layout! Learn more

10-Day Weather Forecast

Advertisements
Track Severe Weather on mobile